sensor_id;sensor_type;location;lat;lon;timestamp;P1;durP1;ratioP1;P2;durP2;ratioP2
57561;SDS011;43397;51.530;5.974;2024-01-30T00:02:23;26.08;;;18.98;;
57561;SDS011;43397;51.530;5.974;2024-01-30T00:04:48;22.98;;;17.75;;
57561;SDS011;43397;51.530;5.974;2024-01-30T00:07:14;21.38;;;16.92;;
57561;SDS011;43397;51.530;5.974;2024-01-30T00:09:40;22.45;;;16.88;;
57561;SDS011;43397;51.530;5.974;2024-01-30T00:12:06;22.88;;;17.25;;
57561;SDS011;43397;51.530;5.974;2024-01-30T00:14:33;20.83;;;16.50;;
57561;SDS011;43397;51.530;5.974;2024-01-30T00:16:59;25.30;;;17.83;;
57561;SDS011;43397;51.530;5.974;2024-01-30T00:19:24;20.48;;;16.58;;
57561;SDS011;43397;51.530;5.974;2024-01-30T00:21:50;21.50;;;17.27;;
57561;SDS011;43397;51.530;5.974;2024-01-30T00:24:16;23.52;;;17.52;;
57561;SDS011;43397;51.530;5.974;2024-01-30T00:26:42;25.27;;;17.05;;
57561;SDS011;43397;51.530;5.974;2024-01-30T00:29:08;21.98;;;16.90;;
57561;SDS011;43397;51.530;5.974;2024-01-30T00:31:35;22.33;;;16.98;;
57561;SDS011;43397;51.530;5.974;2024-01-30T00:34:00;23.23;;;17.40;;
57561;SDS011;43397;51.530;5.974;2024-01-30T00:36:26;22.08;;;17.85;;
57561;SDS011;43397;51.530;5.974;2024-01-30T00:38:55;21.95;;;17.02;;
57561;SDS011;43397;51.530;5.974;2024-01-30T00:41:20;22.17;;;15.75;;
57561;SDS011;43397;51.530;5.974;2024-01-30T00:43:46;20.05;;;15.88;;
57561;SDS011;43397;51.530;5.974;2024-01-30T00:46:12;22.25;;;16.33;;
57561;SDS011;43397;51.530;5.974;2024-01-30T00:48:39;21.92;;;15.68;;
57561;SDS011;43397;51.530;5.974;2024-01-30T00:51:04;20.20;;;16.13;;
57561;SDS011;43397;51.530;5.974;2024-01-30T00:53:30;21.77;;;16.08;;
57561;SDS011;43397;51.530;5.974;2024-01-30T00:55:56;21.48;;;15.65;;
57561;SDS011;43397;51.530;5.974;2024-01-30T00:58:21;22.40;;;16.23;;
57561;SDS011;43397;51.530;5.974;2024-01-30T01:00:47;21.08;;;16.20;;
57561;SDS011;43397;51.530;5.974;2024-01-30T01:03:13;21.50;;;17.38;;
57561;SDS011;43397;51.530;5.974;2024-01-30T01:05:40;20.88;;;15.60;;
57561;SDS011;43397;51.530;5.974;2024-01-30T01:08:06;19.48;;;15.30;;
57561;SDS011;43397;51.530;5.974;2024-01-30T01:10:32;20.92;;;15.90;;
57561;SDS011;43397;51.530;5.974;2024-01-30T01:12:57;22.08;;;15.88;;
57561;SDS011;43397;51.530;5.974;2024-01-30T01:15:23;20.00;;;15.18;;
57561;SDS011;43397;51.530;5.974;2024-01-30T01:17:49;22.33;;;15.10;;
57561;SDS011;43397;51.530;5.974;2024-01-30T01:20:14;18.83;;;15.20;;
57561;SDS011;43397;51.530;5.974;2024-01-30T01:22:42;20.27;;;15.35;;
57561;SDS011;43397;51.530;5.974;2024-01-30T01:25:08;21.45;;;15.50;;
57561;SDS011;43397;51.530;5.974;2024-01-30T01:27:34;22.52;;;16.13;;
57561;SDS011;43397;51.530;5.974;2024-01-30T01:29:59;23.52;;;17.42;;
57561;SDS011;43397;51.530;5.974;2024-01-30T01:32:25;21.20;;;15.73;;
57561;SDS011;43397;51.530;5.974;2024-01-30T01:34:51;22.90;;;15.88;;
57561;SDS011;43397;51.530;5.974;2024-01-30T01:37:16;20.50;;;15.32;;
57561;SDS011;43397;51.530;5.974;2024-01-30T01:39:43;21.70;;;16.30;;
57561;SDS011;43397;51.530;5.974;2024-01-30T01:42:09;23.77;;;15.68;;
57561;SDS011;43397;51.530;5.974;2024-01-30T01:44:35;22.75;;;15.55;;
57561;SDS011;43397;51.530;5.974;2024-01-30T01:47:00;20.95;;;15.23;;
57561;SDS011;43397;51.530;5.974;2024-01-30T01:49:27;20.10;;;14.82;;
57561;SDS011;43397;51.530;5.974;2024-01-30T01:51:54;21.70;;;16.02;;
57561;SDS011;43397;51.530;5.974;2024-01-30T01:54:21;21.77;;;16.40;;
57561;SDS011;43397;51.530;5.974;2024-01-30T01:56:48;22.42;;;16.15;;
57561;SDS011;43397;51.530;5.974;2024-01-30T01:59:14;20.52;;;14.98;;
57561;SDS011;43397;51.530;5.974;2024-01-30T02:01:40;20.45;;;15.70;;
57561;SDS011;43397;51.530;5.974;2024-01-30T02:04:07;20.48;;;15.55;;
57561;SDS011;43397;51.530;5.974;2024-01-30T02:06:33;24.52;;;16.50;;
57561;SDS011;43397;51.530;5.974;2024-01-30T02:08:59;21.05;;;15.85;;
57561;SDS011;43397;51.530;5.974;2024-01-30T02:11:24;21.23;;;15.60;;
57561;SDS011;43397;51.530;5.974;2024-01-30T02:13:52;21.50;;;15.73;;
57561;SDS011;43397;51.530;5.974;2024-01-30T02:16:17;22.90;;;16.00;;
57561;SDS011;43397;51.530;5.974;2024-01-30T02:18:43;21.23;;;16.38;;
57561;SDS011;43397;51.530;5.974;2024-01-30T02:21:10;23.05;;;17.17;;
57561;SDS011;43397;51.530;5.974;2024-01-30T02:23:36;22.55;;;16.23;;
57561;SDS011;43397;51.530;5.974;2024-01-30T02:26:03;23.70;;;17.88;;
57561;SDS011;43397;51.530;5.974;2024-01-30T02:28:29;23.08;;;17.30;;
57561;SDS011;43397;51.530;5.974;2024-01-30T02:30:54;22.77;;;16.27;;
57561;SDS011;43397;51.530;5.974;2024-01-30T02:33:20;23.30;;;16.80;;
57561;SDS011;43397;51.530;5.974;2024-01-30T02:35:46;21.27;;;15.90;;
57561;SDS011;43397;51.530;5.974;2024-01-30T02:38:13;24.38;;;17.02;;
57561;SDS011;43397;51.530;5.974;2024-01-30T02:40:38;22.60;;;15.93;;
57561;SDS011;43397;51.530;5.974;2024-01-30T02:43:04;23.88;;;15.95;;
57561;SDS011;43397;51.530;5.974;2024-01-30T02:45:30;22.10;;;16.88;;
57561;SDS011;43397;51.530;5.974;2024-01-30T02:47:55;23.05;;;15.43;;
57561;SDS011;43397;51.530;5.974;2024-01-30T02:50:21;22.23;;;14.63;;
57561;SDS011;43397;51.530;5.974;2024-01-30T02:52:47;20.33;;;15.77;;
57561;SDS011;43397;51.530;5.974;2024-01-30T02:55:14;23.15;;;15.93;;
57561;SDS011;43397;51.530;5.974;2024-01-30T02:57:40;18.77;;;15.10;;
57561;SDS011;43397;51.530;5.974;2024-01-30T03:00:06;23.50;;;15.20;;
57561;SDS011;43397;51.530;5.974;2024-01-30T03:02:32;20.55;;;15.02;;
57561;SDS011;43397;51.530;5.974;2024-01-30T03:04:59;20.40;;;14.88;;
57561;SDS011;43397;51.530;5.974;2024-01-30T03:07:24;22.45;;;15.18;;
57561;SDS011;43397;51.530;5.974;2024-01-30T03:09:50;19.25;;;15.73;;
57561;SDS011;43397;51.530;5.974;2024-01-30T03:12:17;21.83;;;15.18;;
57561;SDS011;43397;51.530;5.974;2024-01-30T03:14:43;18.20;;;14.35;;
57561;SDS011;43397;51.530;5.974;2024-01-30T03:17:08;21.23;;;16.15;;
57561;SDS011;43397;51.530;5.974;2024-01-30T03:19:34;19.98;;;15.45;;
57561;SDS011;43397;51.530;5.974;2024-01-30T03:22:00;20.15;;;15.07;;
57561;SDS011;43397;51.530;5.974;2024-01-30T03:24:26;21.77;;;15.80;;
57561;SDS011;43397;51.530;5.974;2024-01-30T03:26:51;20.00;;;14.45;;
57561;SDS011;43397;51.530;5.974;2024-01-30T03:29:20;19.45;;;15.32;;
57561;SDS011;43397;51.530;5.974;2024-01-30T03:31:45;21.70;;;15.82;;
57561;SDS011;43397;51.530;5.974;2024-01-30T03:34:11;24.08;;;15.75;;
57561;SDS011;43397;51.530;5.974;2024-01-30T03:36:37;19.65;;;15.27;;
57561;SDS011;43397;51.530;5.974;2024-01-30T03:39:02;20.63;;;14.77;;
57561;SDS011;43397;51.530;5.974;2024-01-30T03:41:28;23.23;;;15.75;;
57561;SDS011;43397;51.530;5.974;2024-01-30T03:43:54;20.27;;;15.63;;
57561;SDS011;43397;51.530;5.974;2024-01-30T03:46:21;20.50;;;14.50;;
57561;SDS011;43397;51.530;5.974;2024-01-30T03:48:46;21.52;;;15.43;;
57561;SDS011;43397;51.530;5.974;2024-01-30T03:51:12;22.70;;;15.23;;
57561;SDS011;43397;51.530;5.974;2024-01-30T03:53:38;22.75;;;15.52;;
57561;SDS011;43397;51.530;5.974;2024-01-30T03:56:04;20.63;;;14.27;;
57561;SDS011;43397;51.530;5.974;2024-01-30T03:58:30;23.58;;;15.63;;
57561;SDS011;43397;51.530;5.974;2024-01-30T04:00:55;22.20;;;15.38;;
57561;SDS011;43397;51.530;5.974;2024-01-30T04:03:22;19.88;;;14.88;;
57561;SDS011;43397;51.530;5.974;2024-01-30T04:05:48;19.05;;;14.35;;
57561;SDS011;43397;51.530;5.974;2024-01-30T04:08:14;24.00;;;15.13;;
57561;SDS011;43397;51.530;5.974;2024-01-30T04:10:39;18.52;;;14.82;;
57561;SDS011;43397;51.530;5.974;2024-01-30T04:13:05;19.92;;;14.77;;
57561;SDS011;43397;51.530;5.974;2024-01-30T04:15:31;18.20;;;13.57;;
57561;SDS011;43397;51.530;5.974;2024-01-30T04:17:57;18.90;;;14.93;;
57561;SDS011;43397;51.530;5.974;2024-01-30T04:20:24;20.58;;;13.57;;
57561;SDS011;43397;51.530;5.974;2024-01-30T04:22:50;20.08;;;13.88;;
57561;SDS011;43397;51.530;5.974;2024-01-30T04:25:15;18.52;;;13.80;;
57561;SDS011;43397;51.530;5.974;2024-01-30T04:27:41;18.10;;;13.73;;
57561;SDS011;43397;51.530;5.974;2024-01-30T04:30:07;17.92;;;13.98;;
57561;SDS011;43397;51.530;5.974;2024-01-30T04:32:33;17.85;;;12.57;;
57561;SDS011;43397;51.530;5.974;2024-01-30T04:35:00;17.60;;;12.50;;
57561;SDS011;43397;51.530;5.974;2024-01-30T04:37:27;16.42;;;12.35;;
57561;SDS011;43397;51.530;5.974;2024-01-30T04:39:53;17.60;;;12.93;;
57561;SDS011;43397;51.530;5.974;2024-01-30T04:42:18;17.10;;;12.45;;
57561;SDS011;43397;51.530;5.974;2024-01-30T04:44:44;17.90;;;12.43;;
57561;SDS011;43397;51.530;5.974;2024-01-30T04:47:10;16.38;;;12.90;;
57561;SDS011;43397;51.530;5.974;2024-01-30T04:49:35;17.13;;;11.80;;
57561;SDS011;43397;51.530;5.974;2024-01-30T04:52:01;16.92;;;11.90;;
57561;SDS011;43397;51.530;5.974;2024-01-30T04:54:28;17.83;;;12.32;;
57561;SDS011;43397;51.530;5.974;2024-01-30T04:56:54;16.80;;;12.40;;
57561;SDS011;43397;51.530;5.974;2024-01-30T04:59:20;16.05;;;11.65;;
57561;SDS011;43397;51.530;5.974;2024-01-30T05:01:45;17.20;;;12.15;;
57561;SDS011;43397;51.530;5.974;2024-01-30T05:04:11;17.58;;;11.70;;
57561;SDS011;43397;51.530;5.974;2024-01-30T05:06:37;15.60;;;11.23;;
57561;SDS011;43397;51.530;5.974;2024-01-30T05:09:03;14.68;;;11.40;;
57561;SDS011;43397;51.530;5.974;2024-01-30T05:11:30;15.98;;;12.05;;
57561;SDS011;43397;51.530;5.974;2024-01-30T05:13:55;18.90;;;12.32;;
57561;SDS011;43397;51.530;5.974;2024-01-30T05:16:21;14.80;;;11.07;;
57561;SDS011;43397;51.530;5.974;2024-01-30T05:18:47;13.88;;;11.38;;
57561;SDS011;43397;51.530;5.974;2024-01-30T05:21:13;17.20;;;12.40;;
57561;SDS011;43397;51.530;5.974;2024-01-30T05:23:39;16.75;;;11.38;;
57561;SDS011;43397;51.530;5.974;2024-01-30T05:26:05;15.48;;;11.35;;
57561;SDS011;43397;51.530;5.974;2024-01-30T05:28:32;18.38;;;11.63;;
57561;SDS011;43397;51.530;5.974;2024-01-30T05:30:57;16.58;;;11.38;;
57561;SDS011;43397;51.530;5.974;2024-01-30T05:33:23;18.33;;;12.05;;
57561;SDS011;43397;51.530;5.974;2024-01-30T05:35:49;16.85;;;11.27;;
57561;SDS011;43397;51.530;5.974;2024-01-30T05:38:15;16.48;;;11.40;;
57561;SDS011;43397;51.530;5.974;2024-01-30T05:40:41;14.88;;;11.18;;
57561;SDS011;43397;51.530;5.974;2024-01-30T05:43:07;16.15;;;11.63;;
57561;SDS011;43397;51.530;5.974;2024-01-30T05:45:34;20.08;;;12.65;;
57561;SDS011;43397;51.530;5.974;2024-01-30T05:47:59;15.38;;;11.57;;
57561;SDS011;43397;51.530;5.974;2024-01-30T05:50:25;17.52;;;11.27;;
57561;SDS011;43397;51.530;5.974;2024-01-30T05:52:51;17.15;;;11.65;;
57561;SDS011;43397;51.530;5.974;2024-01-30T05:55:17;14.57;;;10.60;;
57561;SDS011;43397;51.530;5.974;2024-01-30T05:57:42;16.80;;;10.88;;
57561;SDS011;43397;51.530;5.974;2024-01-30T06:00:08;13.52;;;11.40;;
57561;SDS011;43397;51.530;5.974;2024-01-30T06:02:35;15.25;;;10.05;;
57561;SDS011;43397;51.530;5.974;2024-01-30T06:05:01;14.05;;;11.55;;
57561;SDS011;43397;51.530;5.974;2024-01-30T06:07:27;15.98;;;11.15;;
57561;SDS011;43397;51.530;5.974;2024-01-30T06:09:53;14.40;;;10.30;;
57561;SDS011;43397;51.530;5.974;2024-01-30T06:12:18;15.43;;;9.70;;
57561;SDS011;43397;51.530;5.974;2024-01-30T06:14:44;14.25;;;10.85;;
57561;SDS011;43397;51.530;5.974;2024-01-30T06:17:10;15.50;;;10.88;;
57561;SDS011;43397;51.530;5.974;2024-01-30T06:19:37;16.30;;;9.65;;
57561;SDS011;43397;51.530;5.974;2024-01-30T06:22:05;12.90;;;9.70;;
57561;SDS011;43397;51.530;5.974;2024-01-30T06:24:31;14.02;;;10.35;;
57561;SDS011;43397;51.530;5.974;2024-01-30T06:26:57;15.65;;;9.82;;
57561;SDS011;43397;51.530;5.974;2024-01-30T06:29:23;13.68;;;9.73;;
57561;SDS011;43397;51.530;5.974;2024-01-30T06:31:48;13.30;;;10.05;;
57561;SDS011;43397;51.530;5.974;2024-01-30T06:34:14;15.85;;;9.85;;
57561;SDS011;43397;51.530;5.974;2024-01-30T06:36:41;11.88;;;8.93;;
57561;SDS011;43397;51.530;5.974;2024-01-30T06:39:07;13.23;;;10.20;;
57561;SDS011;43397;51.530;5.974;2024-01-30T06:41:33;13.48;;;9.65;;
57561;SDS011;43397;51.530;5.974;2024-01-30T06:43:58;13.07;;;9.75;;
57561;SDS011;43397;51.530;5.974;2024-01-30T06:46:24;14.38;;;9.70;;
57561;SDS011;43397;51.530;5.974;2024-01-30T06:48:50;13.75;;;9.57;;
57561;SDS011;43397;51.530;5.974;2024-01-30T06:51:15;14.80;;;10.07;;
57561;SDS011;43397;51.530;5.974;2024-01-30T06:53:42;12.60;;;9.63;;
57561;SDS011;43397;51.530;5.974;2024-01-30T06:56:08;12.07;;;9.90;;
57561;SDS011;43397;51.530;5.974;2024-01-30T06:58:34;14.63;;;9.60;;
57561;SDS011;43397;51.530;5.974;2024-01-30T07:00:59;14.63;;;10.43;;
57561;SDS011;43397;51.530;5.974;2024-01-30T07:03:25;13.75;;;9.63;;
57561;SDS011;43397;51.530;5.974;2024-01-30T07:05:51;14.70;;;9.75;;
57561;SDS011;43397;51.530;5.974;2024-01-30T07:08:16;13.48;;;9.75;;
57561;SDS011;43397;51.530;5.974;2024-01-30T07:10:43;13.05;;;9.55;;
57561;SDS011;43397;51.530;5.974;2024-01-30T07:13:09;14.98;;;10.60;;
57561;SDS011;43397;51.530;5.974;2024-01-30T07:15:35;14.60;;;9.60;;
57561;SDS011;43397;51.530;5.974;2024-01-30T07:18:01;14.73;;;10.15;;
57561;SDS011;43397;51.530;5.974;2024-01-30T07:20:26;16.70;;;9.98;;
57561;SDS011;43397;51.530;5.974;2024-01-30T07:22:52;14.77;;;9.88;;
57561;SDS011;43397;51.530;5.974;2024-01-30T07:25:18;14.45;;;10.43;;
57561;SDS011;43397;51.530;5.974;2024-01-30T07:27:45;14.60;;;10.32;;
57561;SDS011;43397;51.530;5.974;2024-01-30T07:30:11;11.32;;;9.55;;
57561;SDS011;43397;51.530;5.974;2024-01-30T07:32:37;15.93;;;10.25;;
57561;SDS011;43397;51.530;5.974;2024-01-30T07:35:03;13.13;;;10.18;;
57561;SDS011;43397;51.530;5.974;2024-01-30T07:37:29;13.70;;;9.82;;
57561;SDS011;43397;51.530;5.974;2024-01-30T07:39:55;15.00;;;10.85;;
57561;SDS011;43397;51.530;5.974;2024-01-30T07:42:20;20.75;;;12.38;;
57561;SDS011;43397;51.530;5.974;2024-01-30T07:44:47;15.85;;;11.95;;
57561;SDS011;43397;51.530;5.974;2024-01-30T07:47:13;12.80;;;10.18;;
57561;SDS011;43397;51.530;5.974;2024-01-30T07:49:39;13.98;;;10.57;;
57561;SDS011;43397;51.530;5.974;2024-01-30T07:52:05;15.65;;;10.77;;
57561;SDS011;43397;51.530;5.974;2024-01-30T07:54:30;14.05;;;10.90;;
57561;SDS011;43397;51.530;5.974;2024-01-30T07:56:56;16.42;;;10.82;;
57561;SDS011;43397;51.530;5.974;2024-01-30T07:59:22;13.35;;;10.65;;
57561;SDS011;43397;51.530;5.974;2024-01-30T08:04:30;17.50;;;10.02;;
57561;SDS011;43397;51.530;5.974;2024-01-30T08:06:55;14.60;;;9.88;;
57561;SDS011;43397;51.530;5.974;2024-01-30T08:09:21;14.23;;;10.15;;
57561;SDS011;43397;51.530;5.974;2024-01-30T08:11:47;16.63;;;11.45;;
57561;SDS011;43397;51.530;5.974;2024-01-30T08:14:12;16.13;;;10.68;;
57561;SDS011;43397;51.530;5.974;2024-01-30T08:16:38;17.55;;;10.75;;
57561;SDS011;43397;51.530;5.974;2024-01-30T08:19:05;15.23;;;10.77;;
57561;SDS011;43397;51.530;5.974;2024-01-30T08:21:31;14.88;;;10.95;;
57561;SDS011;43397;51.530;5.974;2024-01-30T08:23:56;15.32;;;11.25;;
57561;SDS011;43397;51.530;5.974;2024-01-30T08:26:22;16.20;;;10.95;;
57561;SDS011;43397;51.530;5.974;2024-01-30T08:28:48;16.00;;;11.82;;
57561;SDS011;43397;51.530;5.974;2024-01-30T08:31:14;16.50;;;10.93;;
57561;SDS011;43397;51.530;5.974;2024-01-30T08:33:39;14.80;;;10.68;;
57561;SDS011;43397;51.530;5.974;2024-01-30T08:36:07;14.07;;;10.70;;
57561;SDS011;43397;51.530;5.974;2024-01-30T08:38:32;20.65;;;12.55;;
57561;SDS011;43397;51.530;5.974;2024-01-30T08:40:58;15.15;;;11.10;;
57561;SDS011;43397;51.530;5.974;2024-01-30T08:43:24;18.50;;;12.85;;
57561;SDS011;43397;51.530;5.974;2024-01-30T08:45:50;15.25;;;11.70;;
57561;SDS011;43397;51.530;5.974;2024-01-30T08:48:15;16.75;;;11.07;;
57561;SDS011;43397;51.530;5.974;2024-01-30T08:50:41;16.88;;;10.93;;
57561;SDS011;43397;51.530;5.974;2024-01-30T08:53:08;21.23;;;12.05;;
57561;SDS011;43397;51.530;5.974;2024-01-30T08:55:34;14.02;;;10.30;;
57561;SDS011;43397;51.530;5.974;2024-01-30T08:57:59;14.57;;;9.98;;
57561;SDS011;43397;51.530;5.974;2024-01-30T09:00:25;14.63;;;11.10;;
57561;SDS011;43397;51.530;5.974;2024-01-30T09:02:51;14.50;;;10.05;;
57561;SDS011;43397;51.530;5.974;2024-01-30T09:05:16;15.10;;;10.75;;
57561;SDS011;43397;51.530;5.974;2024-01-30T09:07:42;15.00;;;10.68;;
57561;SDS011;43397;51.530;5.974;2024-01-30T09:10:09;17.63;;;10.20;;
57561;SDS011;43397;51.530;5.974;2024-01-30T09:12:35;15.85;;;10.35;;
57561;SDS011;43397;51.530;5.974;2024-01-30T09:15:01;13.45;;;9.98;;
57561;SDS011;43397;51.530;5.974;2024-01-30T09:17:26;14.98;;;10.27;;
57561;SDS011;43397;51.530;5.974;2024-01-30T09:19:52;13.32;;;8.95;;
57561;SDS011;43397;51.530;5.974;2024-01-30T09:22:18;14.77;;;9.38;;
57561;SDS011;43397;51.530;5.974;2024-01-30T09:24:43;14.27;;;9.38;;
57561;SDS011;43397;51.530;5.974;2024-01-30T09:27:11;14.82;;;10.23;;
57561;SDS011;43397;51.530;5.974;2024-01-30T09:29:36;13.40;;;9.40;;
57561;SDS011;43397;51.530;5.974;2024-01-30T09:32:02;13.77;;;10.20;;
57561;SDS011;43397;51.530;5.974;2024-01-30T09:34:29;17.17;;;10.02;;
57561;SDS011;43397;51.530;5.974;2024-01-30T09:36:55;15.95;;;10.95;;
57561;SDS011;43397;51.530;5.974;2024-01-30T09:39:21;12.35;;;9.57;;
57561;SDS011;43397;51.530;5.974;2024-01-30T09:41:48;14.75;;;10.23;;
57561;SDS011;43397;51.530;5.974;2024-01-30T09:44:16;13.45;;;10.07;;
57561;SDS011;43397;51.530;5.974;2024-01-30T09:46:43;13.30;;;9.63;;
57561;SDS011;43397;51.530;5.974;2024-01-30T09:49:12;12.70;;;9.00;;
57561;SDS011;43397;51.530;5.974;2024-01-30T09:51:38;16.25;;;9.73;;
57561;SDS011;43397;51.530;5.974;2024-01-30T09:54:05;14.70;;;8.90;;
57561;SDS011;43397;51.530;5.974;2024-01-30T09:56:33;12.60;;;9.48;;
57561;SDS011;43397;51.530;5.974;2024-01-30T09:58:59;14.18;;;9.90;;
57561;SDS011;43397;51.530;5.974;2024-01-30T10:01:26;13.55;;;9.40;;
57561;SDS011;43397;51.530;5.974;2024-01-30T10:03:52;12.95;;;8.77;;
57561;SDS011;43397;51.530;5.974;2024-01-30T10:06:17;16.80;;;8.70;;
57561;SDS011;43397;51.530;5.974;2024-01-30T10:08:44;14.32;;;9.45;;
57561;SDS011;43397;51.530;5.974;2024-01-30T10:11:10;11.93;;;9.60;;
57561;SDS011;43397;51.530;5.974;2024-01-30T10:13:36;14.73;;;9.27;;
57561;SDS011;43397;51.530;5.974;2024-01-30T10:16:01;14.05;;;8.80;;
57561;SDS011;43397;51.530;5.974;2024-01-30T10:18:29;13.02;;;9.48;;
57561;SDS011;43397;51.530;5.974;2024-01-30T10:20:54;14.18;;;9.18;;
57561;SDS011;43397;51.530;5.974;2024-01-30T10:23:20;12.75;;;9.32;;
57561;SDS011;43397;51.530;5.974;2024-01-30T10:25:46;14.55;;;9.95;;
57561;SDS011;43397;51.530;5.974;2024-01-30T10:28:12;13.80;;;9.77;;
57561;SDS011;43397;51.530;5.974;2024-01-30T10:30:37;14.00;;;10.18;;
57561;SDS011;43397;51.530;5.974;2024-01-30T10:33:03;15.18;;;10.55;;
57561;SDS011;43397;51.530;5.974;2024-01-30T10:35:31;15.25;;;10.02;;
57561;SDS011;43397;51.530;5.974;2024-01-30T10:37:56;14.68;;;10.55;;
57561;SDS011;43397;51.530;5.974;2024-01-30T10:40:22;14.18;;;10.65;;
57561;SDS011;43397;51.530;5.974;2024-01-30T10:42:53;12.15;;;9.23;;
57561;SDS011;43397;51.530;5.974;2024-01-30T10:45:20;14.63;;;10.27;;
57561;SDS011;43397;51.530;5.974;2024-01-30T10:47:48;13.90;;;10.10;;
57561;SDS011;43397;51.530;5.974;2024-01-30T10:50:14;13.32;;;9.63;;
57561;SDS011;43397;51.530;5.974;2024-01-30T10:52:42;15.63;;;9.80;;
57561;SDS011;43397;51.530;5.974;2024-01-30T10:55:08;16.45;;;10.68;;
57561;SDS011;43397;51.530;5.974;2024-01-30T10:57:34;14.50;;;9.50;;
57561;SDS011;43397;51.530;5.974;2024-01-30T11:00:00;13.40;;;9.18;;
57561;SDS011;43397;51.530;5.974;2024-01-30T11:02:29;12.68;;;9.30;;
57561;SDS011;43397;51.530;5.974;2024-01-30T11:04:55;13.73;;;9.65;;
57561;SDS011;43397;51.530;5.974;2024-01-30T11:07:24;17.05;;;10.20;;
57561;SDS011;43397;51.530;5.974;2024-01-30T11:09:51;14.63;;;10.07;;
57561;SDS011;43397;51.530;5.974;2024-01-30T11:12:21;15.32;;;9.52;;
57561;SDS011;43397;51.530;5.974;2024-01-30T11:14:47;15.40;;;10.13;;
57561;SDS011;43397;51.530;5.974;2024-01-30T11:17:13;16.50;;;9.90;;
57561;SDS011;43397;51.530;5.974;2024-01-30T11:19:39;13.13;;;8.93;;
57561;SDS011;43397;51.530;5.974;2024-01-30T11:22:07;13.77;;;9.45;;
57561;SDS011;43397;51.530;5.974;2024-01-30T11:24:36;14.10;;;9.25;;
57561;SDS011;43397;51.530;5.974;2024-01-30T11:27:07;17.70;;;9.80;;
57561;SDS011;43397;51.530;5.974;2024-01-30T11:29:34;14.55;;;8.98;;
57561;SDS011;43397;51.530;5.974;2024-01-30T11:32:00;13.93;;;8.90;;
57561;SDS011;43397;51.530;5.974;2024-01-30T11:34:26;17.75;;;9.85;;
57561;SDS011;43397;51.530;5.974;2024-01-30T11:36:52;16.40;;;9.85;;
57561;SDS011;43397;51.530;5.974;2024-01-30T11:39:21;14.82;;;10.65;;
57561;SDS011;43397;51.530;5.974;2024-01-30T11:41:46;14.95;;;9.70;;
57561;SDS011;43397;51.530;5.974;2024-01-30T11:44:17;15.05;;;9.68;;
57561;SDS011;43397;51.530;5.974;2024-01-30T11:46:42;15.30;;;9.70;;
57561;SDS011;43397;51.530;5.974;2024-01-30T11:49:08;15.27;;;9.88;;
57561;SDS011;43397;51.530;5.974;2024-01-30T11:51:34;14.15;;;10.35;;
57561;SDS011;43397;51.530;5.974;2024-01-30T11:53:59;13.10;;;9.68;;
57561;SDS011;43397;51.530;5.974;2024-01-30T11:56:25;17.17;;;10.30;;
57561;SDS011;43397;51.530;5.974;2024-01-30T11:58:51;14.90;;;10.15;;
57561;SDS011;43397;51.530;5.974;2024-01-30T12:01:18;16.20;;;10.75;;
57561;SDS011;43397;51.530;5.974;2024-01-30T12:03:48;14.57;;;10.27;;
57561;SDS011;43397;51.530;5.974;2024-01-30T12:06:15;16.88;;;10.00;;
57561;SDS011;43397;51.530;5.974;2024-01-30T12:08:40;14.23;;;10.63;;
57561;SDS011;43397;51.530;5.974;2024-01-30T12:11:06;15.27;;;9.90;;
57561;SDS011;43397;51.530;5.974;2024-01-30T12:13:32;13.38;;;9.55;;
57561;SDS011;43397;51.530;5.974;2024-01-30T12:15:58;13.95;;;9.70;;
57561;SDS011;43397;51.530;5.974;2024-01-30T12:18:25;13.48;;;10.10;;
57561;SDS011;43397;51.530;5.974;2024-01-30T12:20:57;12.60;;;9.30;;
57561;SDS011;43397;51.530;5.974;2024-01-30T12:23:23;12.93;;;8.80;;
57561;SDS011;43397;51.530;5.974;2024-01-30T12:25:49;16.77;;;10.02;;
57561;SDS011;43397;51.530;5.974;2024-01-30T12:28:15;15.18;;;9.88;;
57561;SDS011;43397;51.530;5.974;2024-01-30T12:30:41;14.25;;;9.38;;
57561;SDS011;43397;51.530;5.974;2024-01-30T12:33:07;12.63;;;8.20;;
57561;SDS011;43397;51.530;5.974;2024-01-30T12:35:34;14.77;;;9.15;;
57561;SDS011;43397;51.530;5.974;2024-01-30T12:38:00;15.32;;;7.53;;
57561;SDS011;43397;51.530;5.974;2024-01-30T12:40:26;12.32;;;7.93;;
57561;SDS011;43397;51.530;5.974;2024-01-30T12:42:52;11.23;;;7.35;;
57561;SDS011;43397;51.530;5.974;2024-01-30T12:45:18;12.98;;;7.00;;
57561;SDS011;43397;51.530;5.974;2024-01-30T12:47:44;13.30;;;6.60;;
57561;SDS011;43397;51.530;5.974;2024-01-30T12:50:09;11.95;;;6.05;;
57561;SDS011;43397;51.530;5.974;2024-01-30T12:52:37;10.95;;;6.82;;
57561;SDS011;43397;51.530;5.974;2024-01-30T12:55:02;10.52;;;6.57;;
57561;SDS011;43397;51.530;5.974;2024-01-30T12:57:29;12.38;;;6.13;;
57561;SDS011;43397;51.530;5.974;2024-01-30T12:59:54;9.07;;;5.68;;
57561;SDS011;43397;51.530;5.974;2024-01-30T13:02:20;10.30;;;6.00;;
57561;SDS011;43397;51.530;5.974;2024-01-30T13:04:46;9.45;;;6.50;;
57561;SDS011;43397;51.530;5.974;2024-01-30T13:07:12;9.40;;;5.70;;
57561;SDS011;43397;51.530;5.974;2024-01-30T13:09:39;9.60;;;5.25;;
57561;SDS011;43397;51.530;5.974;2024-01-30T13:12:05;11.07;;;5.43;;
57561;SDS011;43397;51.530;5.974;2024-01-30T13:14:31;9.48;;;4.15;;
57561;SDS011;43397;51.530;5.974;2024-01-30T13:16:57;9.27;;;4.57;;
57561;SDS011;43397;51.530;5.974;2024-01-30T13:19:22;12.48;;;5.35;;
57561;SDS011;43397;51.530;5.974;2024-01-30T13:21:48;10.60;;;6.38;;
57561;SDS011;43397;51.530;5.974;2024-01-30T13:24:14;10.23;;;6.18;;
57561;SDS011;43397;51.530;5.974;2024-01-30T13:26:41;8.98;;;5.47;;
57561;SDS011;43397;51.530;5.974;2024-01-30T13:29:08;9.70;;;6.00;;
57561;SDS011;43397;51.530;5.974;2024-01-30T13:31:33;11.27;;;5.22;;
57561;SDS011;43397;51.530;5.974;2024-01-30T13:33:59;11.70;;;5.72;;
57561;SDS011;43397;51.530;5.974;2024-01-30T13:36:25;8.60;;;3.88;;
57561;SDS011;43397;51.530;5.974;2024-01-30T13:38:51;4.10;;;2.10;;
57561;SDS011;43397;51.530;5.974;2024-01-30T13:41:16;4.43;;;1.88;;
57561;SDS011;43397;51.530;5.974;2024-01-30T13:43:44;5.10;;;1.50;;
57561;SDS011;43397;51.530;5.974;2024-01-30T13:46:10;3.38;;;1.20;;
57561;SDS011;43397;51.530;5.974;2024-01-30T13:48:35;6.07;;;1.60;;
57561;SDS011;43397;51.530;5.974;2024-01-30T13:51:01;5.95;;;1.30;;
57561;SDS011;43397;51.530;5.974;2024-01-30T13:53:27;3.17;;;1.00;;
57561;SDS011;43397;51.530;5.974;2024-01-30T13:55:53;4.70;;;1.25;;
57561;SDS011;43397;51.530;5.974;2024-01-30T13:58:18;3.38;;;1.20;;
57561;SDS011;43397;51.530;5.974;2024-01-30T14:00:46;3.95;;;1.10;;
57561;SDS011;43397;51.530;5.974;2024-01-30T14:03:12;4.25;;;1.40;;
57561;SDS011;43397;51.530;5.974;2024-01-30T14:05:37;2.35;;;1.30;;
57561;SDS011;43397;51.530;5.974;2024-01-30T14:08:03;5.40;;;1.40;;
57561;SDS011;43397;51.530;5.974;2024-01-30T14:10:29;5.30;;;1.38;;
57561;SDS011;43397;51.530;5.974;2024-01-30T14:12:55;2.60;;;1.05;;
57561;SDS011;43397;51.530;5.974;2024-01-30T14:15:20;3.30;;;1.10;;
57561;SDS011;43397;51.530;5.974;2024-01-30T14:17:47;3.38;;;1.67;;
57561;SDS011;43397;51.530;5.974;2024-01-30T14:20:13;3.03;;;0.95;;
57561;SDS011;43397;51.530;5.974;2024-01-30T14:22:40;3.88;;;1.20;;